sensor_id;sensor_type;location;lat;lon;timestamp;pressure;altitude;pressure_sealevel;temperature;humidity
58367;BME280;57745;42.524;12.052;2023-08-07T00:02:23;95951.63;;;25.46;40.23
58367;BME280;57745;42.524;12.052;2023-08-07T00:04:49;95946.13;;;25.66;40.00
58367;BME280;57745;42.524;12.052;2023-08-07T00:07:14;95947.50;;;25.60;40.19
58367;BME280;57745;42.524;12.052;2023-08-07T00:09:40;95942.19;;;25.49;40.14
58367;BME280;57745;42.524;12.052;2023-08-07T00:12:05;95945.38;;;25.66;40.02
58367;BME280;57745;42.524;12.052;2023-08-07T00:14:31;95944.09;;;25.67;39.64
58367;BME280;57745;42.524;12.052;2023-08-07T00:16:56;95934.81;;;25.51;39.98
58367;BME280;57745;42.524;12.052;2023-08-07T00:19:21;95937.59;;;25.64;40.03
58367;BME280;57745;42.524;12.052;2023-08-07T00:21:47;95937.13;;;25.60;40.19
58367;BME280;57745;42.524;12.052;2023-08-07T00:24:18;95930.09;;;25.59;39.98
58367;BME280;57745;42.524;12.052;2023-08-07T00:26:44;95927.78;;;25.50;40.16
58367;BME280;57745;42.524;12.052;2023-08-07T00:29:09;95937.09;;;25.39;40.52
58367;BME280;57745;42.524;12.052;2023-08-07T00:31:34;95934.06;;;25.51;40.36
58367;BME280;57745;42.524;12.052;2023-08-07T00:34:00;95943.94;;;25.38;40.86
58367;BME280;57745;42.524;12.052;2023-08-07T00:36:25;95936.56;;;25.41;41.06
58367;BME280;57745;42.524;12.052;2023-08-07T00:38:53;95919.97;;;25.49;41.35
58367;BME280;57745;42.524;12.052;2023-08-07T00:41:19;95926.94;;;25.42;41.74
58367;BME280;57745;42.524;12.052;2023-08-07T00:43:45;95933.13;;;25.35;42.13
58367;BME280;57745;42.524;12.052;2023-08-07T00:46:10;95927.50;;;25.74;41.83
58367;BME280;57745;42.524;12.052;2023-08-07T00:48:36;95929.16;;;25.70;41.71
58367;BME280;57745;42.524;12.052;2023-08-07T00:51:02;95926.31;;;25.83;41.66
58367;BME280;57745;42.524;12.052;2023-08-07T00:53:30;95924.00;;;25.74;42.54
58367;BME280;57745;42.524;12.052;2023-08-07T00:55:56;95921.47;;;25.50;43.10
58367;BME280;57745;42.524;12.052;2023-08-07T00:58:23;95920.50;;;25.47;42.83
58367;BME280;57745;42.524;12.052;2023-08-07T01:00:49;95928.34;;;25.35;43.48
58367;BME280;57745;42.524;12.052;2023-08-07T01:03:14;95928.44;;;25.43;43.45
58367;BME280;57745;42.524;12.052;2023-08-07T01:05:40;95926.66;;;25.32;43.87
58367;BME280;57745;42.524;12.052;2023-08-07T01:08:05;95935.38;;;25.36;43.84
58367;BME280;57745;42.524;12.052;2023-08-07T01:13:32;95927.72;;;25.29;44.10
58367;BME280;57745;42.524;12.052;2023-08-07T01:16:11;95929.31;;;25.25;44.58
58367;BME280;57745;42.524;12.052;2023-08-07T01:18:40;95926.44;;;25.30;44.79
58367;BME280;57745;42.524;12.052;2023-08-07T01:21:06;95924.25;;;25.50;44.82
58367;BME280;57745;42.524;12.052;2023-08-07T01:23:31;95917.09;;;25.54;44.69
58367;BME280;57745;42.524;12.052;2023-08-07T01:25:57;95913.19;;;25.36;45.13
58367;BME280;57745;42.524;12.052;2023-08-07T01:28:27;95907.44;;;25.34;45.63
58367;BME280;57745;42.524;12.052;2023-08-07T01:30:57;95921.53;;;25.23;46.15
58367;BME280;57745;42.524;12.052;2023-08-07T01:33:27;95919.78;;;25.47;45.78
58367;BME280;57745;42.524;12.052;2023-08-07T01:35:58;95917.41;;;25.51;45.81
58367;BME280;57745;42.524;12.052;2023-08-07T01:38:27;95923.06;;;25.71;45.63
58367;BME280;57745;42.524;12.052;2023-08-07T01:40:54;95920.81;;;25.70;46.16
58367;BME280;57745;42.524;12.052;2023-08-07T01:43:20;95932.28;;;25.87;46.63
58367;BME280;57745;42.524;12.052;2023-08-07T01:45:46;95931.66;;;25.34;48.73
58367;BME280;57745;42.524;12.052;2023-08-07T01:48:11;95936.47;;;25.33;48.32
58367;BME280;57745;42.524;12.052;2023-08-07T01:50:39;95928.19;;;25.54;48.31
58367;BME280;57745;42.524;12.052;2023-08-07T01:53:05;95928.41;;;25.69;48.49
58367;BME280;57745;42.524;12.052;2023-08-07T01:55:30;95927.97;;;25.65;48.93
58367;BME280;57745;42.524;12.052;2023-08-07T01:57:56;95927.94;;;25.79;48.60
58367;BME280;57745;42.524;12.052;2023-08-07T02:00:21;95914.78;;;25.79;49.51
58367;BME280;57745;42.524;12.052;2023-08-07T02:02:47;95922.44;;;25.86;49.57
58367;BME280;57745;42.524;12.052;2023-08-07T02:05:13;95919.34;;;25.90;49.32
58367;BME280;57745;42.524;12.052;2023-08-07T02:07:39;95915.53;;;25.80;50.29
58367;BME280;57745;42.524;12.052;2023-08-07T02:10:05;95917.34;;;25.77;50.47
58367;BME280;57745;42.524;12.052;2023-08-07T02:12:30;95917.34;;;25.77;50.70
58367;BME280;57745;42.524;12.052;2023-08-07T02:14:59;95913.28;;;25.78;50.92
58367;BME280;57745;42.524;12.052;2023-08-07T02:17:27;95911.34;;;25.86;50.99
58367;BME280;57745;42.524;12.052;2023-08-07T02:19:53;95913.41;;;25.72;51.57
58367;BME280;57745;42.524;12.052;2023-08-07T02:22:19;95926.56;;;25.72;51.32
58367;BME280;57745;42.524;12.052;2023-08-07T02:24:44;95918.03;;;25.70;51.62
58367;BME280;57745;42.524;12.052;2023-08-07T02:27:09;95918.03;;;25.70;51.85
58367;BME280;57745;42.524;12.052;2023-08-07T02:29:35;95926.28;;;25.62;52.11
58367;BME280;57745;42.524;12.052;2023-08-07T02:32:04;95926.75;;;25.74;51.59
58367;BME280;57745;42.524;12.052;2023-08-07T02:34:30;95925.00;;;25.84;51.57
58367;BME280;57745;42.524;12.052;2023-08-07T02:36:56;95924.63;;;25.80;51.52
58367;BME280;57745;42.524;12.052;2023-08-07T02:39:22;95929.22;;;25.77;51.69
58367;BME280;57745;42.524;12.052;2023-08-07T02:41:48;95923.13;;;25.79;51.69
58367;BME280;57745;42.524;12.052;2023-08-07T02:44:13;95920.34;;;25.79;51.67
58367;BME280;57745;42.524;12.052;2023-08-07T02:46:39;95922.22;;;25.84;51.16
58367;BME280;57745;42.524;12.052;2023-08-07T02:49:04;95915.59;;;25.66;51.77
58367;BME280;57745;42.524;12.052;2023-08-07T02:51:30;95913.41;;;25.72;51.71
58367;BME280;57745;42.524;12.052;2023-08-07T02:53:56;95919.28;;;25.82;51.41
58367;BME280;57745;42.524;12.052;2023-08-07T02:56:21;95924.00;;;25.74;51.57
58367;BME280;57745;42.524;12.052;2023-08-07T02:58:46;95916.19;;;25.72;51.60
58367;BME280;57745;42.524;12.052;2023-08-07T03:01:12;95916.66;;;25.50;52.49
58367;BME280;57745;42.524;12.052;2023-08-07T03:03:38;95916.75;;;25.71;51.98
58367;BME280;57745;42.524;12.052;2023-08-07T03:06:03;95918.38;;;25.53;52.30
58367;BME280;57745;42.524;12.052;2023-08-07T03:08:29;95926.16;;;25.55;52.82
58367;BME280;57745;42.524;12.052;2023-08-07T03:10:56;95925.88;;;25.45;53.05
58367;BME280;57745;42.524;12.052;2023-08-07T03:13:22;95920.81;;;25.70;52.54
58367;BME280;57745;42.524;12.052;2023-08-07T03:15:48;95921.47;;;25.63;52.32
58367;BME280;57745;42.524;12.052;2023-08-07T03:18:17;95926.16;;;25.68;52.42
58367;BME280;57745;42.524;12.052;2023-08-07T03:20:42;95926.69;;;25.66;52.63
58367;BME280;57745;42.524;12.052;2023-08-07T03:23:09;95927.72;;;25.76;52.61
58367;BME280;57745;42.524;12.052;2023-08-07T03:25:35;95926.69;;;25.66;52.50
58367;BME280;57745;42.524;12.052;2023-08-07T03:28:00;95928.47;;;25.77;51.91
58367;BME280;57745;42.524;12.052;2023-08-07T03:30:26;95919.94;;;25.75;52.30
58367;BME280;57745;42.524;12.052;2023-08-07T03:32:51;95922.63;;;25.67;52.49
58367;BME280;57745;42.524;12.052;2023-08-07T03:35:17;95927.94;;;25.79;52.07
58367;BME280;57745;42.524;12.052;2023-08-07T03:37:43;95928.94;;;25.55;52.50
58367;BME280;57745;42.524;12.052;2023-08-07T03:40:08;95929.25;;;25.51;52.59
58367;BME280;57745;42.524;12.052;2023-08-07T03:42:34;95931.50;;;25.66;52.23
58367;BME280;57745;42.524;12.052;2023-08-07T03:44:59;95925.16;;;25.79;51.43
58367;BME280;57745;42.524;12.052;2023-08-07T03:47:25;95929.91;;;25.70;51.89
58367;BME280;57745;42.524;12.052;2023-08-07T03:49:50;95927.91;;;25.45;52.36
58367;BME280;57745;42.524;12.052;2023-08-07T03:52:16;95941.81;;;25.31;52.82
58367;BME280;57745;42.524;12.052;2023-08-07T03:54:43;95928.66;;;25.45;53.00
58367;BME280;57745;42.524;12.052;2023-08-07T03:57:08;95945.00;;;25.22;52.99
58367;BME280;57745;42.524;12.052;2023-08-07T03:59:35;95939.66;;;25.24;53.03
58367;BME280;57745;42.524;12.052;2023-08-07T04:02:00;95943.72;;;25.23;53.15
58367;BME280;57745;42.524;12.052;2023-08-07T04:04:26;95945.13;;;25.30;53.06
58367;BME280;57745;42.524;12.052;2023-08-07T04:06:51;95947.78;;;25.22;53.21
58367;BME280;57745;42.524;12.052;2023-08-07T04:09:17;95945.00;;;25.22;53.16
58367;BME280;57745;42.524;12.052;2023-08-07T04:11:42;95945.22;;;25.11;53.43
58367;BME280;57745;42.524;12.052;2023-08-07T04:14:08;95945.56;;;25.21;52.73
58367;BME280;57745;42.524;12.052;2023-08-07T04:16:33;95945.34;;;25.19;53.38
58367;BME280;57745;42.524;12.052;2023-08-07T04:18:58;95939.31;;;25.54;52.23
58367;BME280;57745;42.524;12.052;2023-08-07T04:21:24;95929.19;;;25.44;52.36
58367;BME280;57745;42.524;12.052;2023-08-07T04:23:49;95926.91;;;25.55;51.69
58367;BME280;57745;42.524;12.052;2023-08-07T04:26:15;95929.25;;;25.51;52.13
58367;BME280;57745;42.524;12.052;2023-08-07T04:28:41;95930.75;;;25.52;52.10
58367;BME280;57745;42.524;12.052;2023-08-07T04:31:07;95929.06;;;25.62;52.02
58367;BME280;57745;42.524;12.052;2023-08-07T04:33:33;95928.75;;;25.39;52.63
58367;BME280;57745;42.524;12.052;2023-08-07T04:35:59;95931.31;;;25.37;52.93
58367;BME280;57745;42.524;12.052;2023-08-07T04:38:24;95942.63;;;25.53;52.26
58367;BME280;57745;42.524;12.052;2023-08-07T04:40:50;95939.00;;;25.45;52.65
58367;BME280;57745;42.524;12.052;2023-08-07T04:43:17;95940.25;;;25.57;52.39
58367;BME280;57745;42.524;12.052;2023-08-07T04:45:43;95933.44;;;25.58;52.13
58367;BME280;57745;42.524;12.052;2023-08-07T04:48:10;95931.72;;;25.68;51.61
58367;BME280;57745;42.524;12.052;2023-08-07T04:50:39;95937.75;;;25.32;52.45
58367;BME280;57745;42.524;12.052;2023-08-07T04:53:05;95934.81;;;25.51;52.00
58367;BME280;57745;42.524;12.052;2023-08-07T04:55:31;95933.69;;;25.47;51.79
58367;BME280;57745;42.524;12.052;2023-08-07T04:57:57;95935.56;;;25.52;51.53
58367;BME280;57745;42.524;12.052;2023-08-07T05:00:24;95942.53;;;25.45;51.46
58367;BME280;57745;42.524;12.052;2023-08-07T05:02:50;95947.03;;;25.35;52.09
58367;BME280;57745;42.524;12.052;2023-08-07T05:05:16;95946.75;;;25.59;51.66
58367;BME280;57745;42.524;12.052;2023-08-07T05:07:42;95950.50;;;25.62;51.73
58367;BME280;57745;42.524;12.052;2023-08-07T05:10:09;95952.78;;;25.37;52.41
58367;BME280;57745;42.524;12.052;2023-08-07T05:12:34;95952.00;;;25.50;52.42
58367;BME280;57745;42.524;12.052;2023-08-07T05:15:00;95953.50;;;25.51;52.41
58367;BME280;57745;42.524;12.052;2023-08-07T05:17:25;95964.09;;;25.52;52.41
58367;BME280;57745;42.524;12.052;2023-08-07T05:19:51;95959.06;;;25.64;52.23
58367;BME280;57745;42.524;12.052;2023-08-07T05:22:16;95968.78;;;25.70;51.93
58367;BME280;57745;42.524;12.052;2023-08-07T05:24:42;95965.91;;;25.50;52.85
58367;BME280;57745;42.524;12.052;2023-08-07T05:27:09;95971.44;;;25.50;53.06
58367;BME280;57745;42.524;12.052;2023-08-07T05:29:35;95961.66;;;25.35;53.62
58367;BME280;57745;42.524;12.052;2023-08-07T05:32:08;95972.75;;;25.22;54.52
58367;BME280;57745;42.524;12.052;2023-08-07T05:34:35;95972.75;;;25.22;54.45
58367;BME280;57745;42.524;12.052;2023-08-07T05:37:01;95976.41;;;25.30;54.25
58367;BME280;57745;42.524;12.052;2023-08-07T05:39:26;95963.59;;;25.27;54.57
58367;BME280;57745;42.524;12.052;2023-08-07T05:41:52;95973.41;;;25.41;54.35
58367;BME280;57745;42.524;12.052;2023-08-07T05:44:19;95973.59;;;25.44;54.42
58367;BME280;57745;42.524;12.052;2023-08-07T05:46:45;95970.81;;;25.57;54.32
58367;BME280;57745;42.524;12.052;2023-08-07T05:49:10;95971.25;;;25.61;54.02
58367;BME280;57745;42.524;12.052;2023-08-07T05:51:36;95980.75;;;25.52;54.33
58367;BME280;57745;42.524;12.052;2023-08-07T05:54:01;95980.66;;;25.45;54.83
58367;BME280;57745;42.524;12.052;2023-08-07T05:56:27;95981.94;;;25.44;54.62
58367;BME280;57745;42.524;12.052;2023-08-07T05:58:53;95979.78;;;25.50;54.60
58367;BME280;57745;42.524;12.052;2023-08-07T06:01:18;95976.47;;;25.64;54.16
58367;BME280;57745;42.524;12.052;2023-08-07T06:03:43;95978.03;;;25.73;53.80
58367;BME280;57745;42.524;12.052;2023-08-07T06:06:09;95985.34;;;25.63;54.13
58367;BME280;57745;42.524;12.052;2023-08-07T06:08:34;95983.94;;;25.69;54.61
58367;BME280;57745;42.524;12.052;2023-08-07T06:11:00;95980.53;;;25.63;54.19
58367;BME280;57745;42.524;12.052;2023-08-07T06:13:29;95984.59;;;25.62;54.17
58367;BME280;57745;42.524;12.052;2023-08-07T06:15:54;95994.41;;;25.50;54.61
58367;BME280;57745;42.524;12.052;2023-08-07T06:18:20;95998.47;;;25.49;54.81
58367;BME280;57745;42.524;12.052;2023-08-07T06:20:45;95993.09;;;25.77;53.54
58367;BME280;57745;42.524;12.052;2023-08-07T06:23:12;95990.03;;;25.68;53.68
58367;BME280;57745;42.524;12.052;2023-08-07T06:25:37;96003.91;;;25.68;54.14
58367;BME280;57745;42.524;12.052;2023-08-07T06:28:03;96008.41;;;25.71;53.91
58367;BME280;57745;42.524;12.052;2023-08-07T06:30:30;95991.00;;;25.70;53.85
58367;BME280;57745;42.524;12.052;2023-08-07T06:32:56;95994.53;;;25.71;54.06
58367;BME280;57745;42.524;12.052;2023-08-07T06:35:21;96004.00;;;25.75;53.69
58367;BME280;57745;42.524;12.052;2023-08-07T06:37:46;96005.06;;;25.72;53.85
58367;BME280;57745;42.524;12.052;2023-08-07T06:40:12;96003.00;;;25.86;53.54
58367;BME280;57745;42.524;12.052;2023-08-07T06:42:37;96002.41;;;25.80;53.90
58367;BME280;57745;42.524;12.052;2023-08-07T06:45:03;95994.69;;;25.73;53.94
58367;BME280;57745;42.524;12.052;2023-08-07T06:47:29;96006.25;;;25.77;53.62
58367;BME280;57745;42.524;12.052;2023-08-07T06:49:55;96006.66;;;25.81;53.59
58367;BME280;57745;42.524;12.052;2023-08-07T06:52:20;96007.72;;;25.78;53.69
58367;BME280;57745;42.524;12.052;2023-08-07T06:54:45;96013.25;;;25.91;53.76
58367;BME280;57745;42.524;12.052;2023-08-07T06:57:11;96008.91;;;25.83;53.11
58367;BME280;57745;42.524;12.052;2023-08-07T06:59:37;96004.50;;;25.87;53.17
58367;BME280;57745;42.524;12.052;2023-08-07T07:02:04;96009.53;;;25.89;52.92
58367;BME280;57745;42.524;12.052;2023-08-07T07:04:29;96006.63;;;25.94;53.08
58367;BME280;57745;42.524;12.052;2023-08-07T07:06:55;96010.50;;;25.78;53.28
58367;BME280;57745;42.524;12.052;2023-08-07T07:09:20;96010.41;;;25.84;53.62
58367;BME280;57745;42.524;12.052;2023-08-07T07:11:46;96030.78;;;25.86;53.22
58367;BME280;57745;42.524;12.052;2023-08-07T07:14:11;96013.72;;;25.82;53.34
58367;BME280;57745;42.524;12.052;2023-08-07T07:16:37;96021.81;;;25.93;52.88
58367;BME280;57745;42.524;12.052;2023-08-07T07:19:03;96031.97;;;25.91;53.28
58367;BME280;57745;42.524;12.052;2023-08-07T07:21:29;96026.31;;;26.17;52.59
58367;BME280;57745;42.524;12.052;2023-08-07T07:23:54;96025.13;;;25.92;52.81
58367;BME280;57745;42.524;12.052;2023-08-07T07:26:20;96025.47;;;26.09;52.69
58367;BME280;57745;42.524;12.052;2023-08-07T07:28:45;96035.22;;;26.02;52.28
58367;BME280;57745;42.524;12.052;2023-08-07T07:31:11;96033.16;;;25.82;53.30
58367;BME280;57745;42.524;12.052;2023-08-07T07:33:37;96033.75;;;26.01;52.97
58367;BME280;57745;42.524;12.052;2023-08-07T07:36:05;96035.19;;;26.16;52.38
58367;BME280;57745;42.524;12.052;2023-08-07T07:38:31;96038.44;;;26.06;53.07
58367;BME280;57745;42.524;12.052;2023-08-07T07:40:57;96034.50;;;26.02;52.71
58367;BME280;57745;42.524;12.052;2023-08-07T07:43:23;96027.31;;;26.06;53.00
58367;BME280;57745;42.524;12.052;2023-08-07T07:45:49;96038.22;;;26.04;52.64
58367;BME280;57745;42.524;12.052;2023-08-07T07:48:14;96032.00;;;26.11;52.73
58367;BME280;57745;42.524;12.052;2023-08-07T07:50:41;96039.84;;;26.34;52.01
58367;BME280;57745;42.524;12.052;2023-08-07T07:53:06;96043.66;;;26.10;52.24
58367;BME280;57745;42.524;12.052;2023-08-07T07:55:32;96053.97;;;26.23;51.49
58367;BME280;57745;42.524;12.052;2023-08-07T07:57:59;96049.84;;;26.16;52.20
58367;BME280;57745;42.524;12.052;2023-08-07T08:00:24;96040.97;;;26.18;51.70
58367;BME280;57745;42.524;12.052;2023-08-07T08:02:53;96047.13;;;26.24;51.34
58367;BME280;57745;42.524;12.052;2023-08-07T08:05:19;96049.63;;;26.14;51.20
58367;BME280;57745;42.524;12.052;2023-08-07T08:07:45;96047.53;;;26.07;50.95
58367;BME280;57745;42.524;12.052;2023-08-07T08:10:10;96060.41;;;26.18;50.99
58367;BME280;57745;42.524;12.052;2023-08-07T08:12:36;96061.81;;;26.11;50.83
58367;BME280;57745;42.524;12.052;2023-08-07T08:15:03;96057.69;;;26.04;50.69
58367;BME280;57745;42.524;12.052;2023-08-07T08:17:28;96060.56;;;25.99;50.15
58367;BME280;57745;42.524;12.052;2023-08-07T08:19:54;96063.81;;;26.24;49.80
58367;BME280;57745;42.524;12.052;2023-08-07T08:22:19;96064.16;;;26.20;50.07
58367;BME280;57745;42.524;12.052;2023-08-07T08:24:46;96074.81;;;25.95;50.45
58367;BME280;57745;42.524;12.052;2023-08-07T08:27:13;96071.66;;;26.12;49.93
58367;BME280;57745;42.524;12.052;2023-08-07T08:29:38;96077.31;;;26.20;49.14
58367;BME280;57745;42.524;12.052;2023-08-07T08:32:04;96078.41;;;26.03;49.86
58367;BME280;57745;42.524;12.052;2023-08-07T08:34:29;96080.47;;;25.90;50.04
58367;BME280;57745;42.524;12.052;2023-08-07T08:36:55;96080.56;;;25.97;49.24
58367;BME280;57745;42.524;12.052;2023-08-07T08:39:20;96079.03;;;26.09;49.28
58367;BME280;57745;42.524;12.052;2023-08-07T08:41:46;96085.91;;;26.08;49.74
58367;BME280;57745;42.524;12.052;2023-08-07T08:44:16;96086.94;;;26.19;50.06
58367;BME280;57745;42.524;12.052;2023-08-07T08:46:42;96088.09;;;26.10;49.53
58367;BME280;57745;42.524;12.052;2023-08-07T08:49:10;96086.91;;;26.32;49.43
58367;BME280;57745;42.524;12.052;2023-08-07T08:51:39;96099.16;;;26.02;49.46
58367;BME280;57745;42.524;12.052;2023-08-07T08:54:05;96093.03;;;26.17;49.18
58367;BME280;57745;42.524;12.052;2023-08-07T08:56:31;96102.34;;;26.06;49.03
58367;BME280;57745;42.524;12.052;2023-08-07T08:58:57;96093.63;;;26.23;48.70
58367;BME280;57745;42.524;12.052;2023-08-07T09:01:22;96095.59;;;26.15;49.10
58367;BME280;57745;42.524;12.052;2023-08-07T09:03:49;96096.19;;;26.34;48.17
58367;BME280;57745;42.524;12.052;2023-08-07T09:06:15;96100.09;;;26.18;48.68
58367;BME280;57745;42.524;12.052;2023-08-07T09:08:42;96101.53;;;26.45;47.93
58367;BME280;57745;42.524;12.052;2023-08-07T09:11:08;96100.34;;;26.41;46.62
58367;BME280;57745;42.524;12.052;2023-08-07T09:13:36;96107.28;;;26.47;46.17
58367;BME280;57745;42.524;12.052;2023-08-07T09:16:02;96095.13;;;26.37;45.30
58367;BME280;57745;42.524;12.052;2023-08-07T09:18:29;96101.91;;;26.50;45.02
58367;BME280;57745;42.524;12.052;2023-08-07T09:20:55;96103.84;;;26.55;43.64
58367;BME280;57745;42.524;12.052;2023-08-07T09:23:22;96098.00;;;26.66;43.10
58367;BME280;57745;42.524;12.052;2023-08-07T09:25:59;96092.34;;;26.58;44.88
58367;BME280;57745;42.524;12.052;2023-08-07T09:28:24;96099.19;;;26.70;43.37
58367;BME280;57745;42.524;12.052;2023-08-07T09:30:52;96095.00;;;26.84;42.63
58367;BME280;57745;42.524;12.052;2023-08-07T09:33:24;96094.84;;;26.82;43.73
58367;BME280;57745;42.524;12.052;2023-08-07T09:35:50;96098.00;;;26.66;42.23
58367;BME280;57745;42.524;12.052;2023-08-07T09:38:15;96097.69;;;26.69;42.06
58367;BME280;57745;42.524;12.052;2023-08-07T09:40:42;96093.66;;;26.78;40.88
58367;BME280;57745;42.524;12.052;2023-08-07T09:43:07;96098.44;;;26.70;41.01
58367;BME280;57745;42.524;12.052;2023-08-07T09:45:33;96100.78;;;26.87;40.86
58367;BME280;57745;42.524;12.052;2023-08-07T09:50:28;96086.47;;;26.82;39.15
58367;BME280;57745;42.524;12.052;2023-08-07T09:52:54;96086.41;;;26.96;39.52
58367;BME280;57745;42.524;12.052;2023-08-07T09:55:21;96086.34;;;26.88;38.95
58367;BME280;57745;42.524;12.052;2023-08-07T09:57:48;96095.22;;;26.87;38.27
58367;BME280;57745;42.524;12.052;2023-08-07T10:00:14;96081.72;;;26.91;38.08
58367;BME280;57745;42.524;12.052;2023-08-07T10:02:43;96087.63;;;26.87;37.10
58367;BME280;57745;42.524;12.052;2023-08-07T10:05:10;96083.16;;;27.05;37.09
58367;BME280;57745;42.524;12.052;2023-08-07T10:07:37;96087.25;;;27.04;37.14
58367;BME280;57745;42.524;12.052;2023-08-07T10:10:04;96085.34;;;26.99;38.31
58367;BME280;57745;42.524;12.052;2023-08-07T10:12:30;96090.06;;;26.91;37.19
58367;BME280;57745;42.524;12.052;2023-08-07T10:14:56;96086.91;;;27.07;37.16
58367;BME280;57745;42.524;12.052;2023-08-07T10:17:24;96085.25;;;26.91;35.34
58367;BME280;57745;42.524;12.052;2023-08-07T10:19:51;96091.31;;;27.03;36.24
58367;BME280;57745;42.524;12.052;2023-08-07T10:22:18;96098.50;;;26.98;35.96
58367;BME280;57745;42.524;12.052;2023-08-07T10:24:47;96095.88;;;26.93;34.83
58367;BME280;57745;42.524;12.052;2023-08-07T10:27:15;96096.72;;;26.88;35.38
58367;BME280;57745;42.524;12.052;2023-08-07T10:29:42;96096.38;;;26.91;34.27
58367;BME280;57745;42.524;12.052;2023-08-07T10:32:10;96101.31;;;26.85;34.60
58367;BME280;57745;42.524;12.052;2023-08-07T10:34:39;96096.13;;;27.02;35.33
58367;BME280;57745;42.524;12.052;2023-08-07T10:37:07;96101.53;;;26.87;34.69
58367;BME280;57745;42.524;12.052;2023-08-07T10:39:33;96093.19;;;27.08;35.34
58367;BME280;57745;42.524;12.052;2023-08-07T10:41:59;96094.63;;;27.01;34.26
58367;BME280;57745;42.524;12.052;2023-08-07T10:44:29;96107.31;;;27.10;34.70
58367;BME280;57745;42.524;12.052;2023-08-07T10:46:57;96095.97;;;27.08;34.82
58367;BME280;57745;42.524;12.052;2023-08-07T10:52:08;96097.09;;;27.05;35.49
58367;BME280;57745;42.524;12.052;2023-08-07T10:54:50;96100.47;;;27.11;35.34
58367;BME280;57745;42.524;12.052;2023-08-07T10:57:17;96100.16;;;27.22;35.82
58367;BME280;57745;42.524;12.052;2023-08-07T10:59:49;96104.00;;;27.11;35.34
58367;BME280;57745;42.524;12.052;2023-08-07T11:02:23;96101.41;;;27.13;35.33
58367;BME280;57745;42.524;12.052;2023-08-07T11:04:52;96099.31;;;27.06;34.68
58367;BME280;57745;42.524;12.052;2023-08-07T11:07:28;96095.09;;;27.13;34.67
58367;BME280;57745;42.524;12.052;2023-08-07T11:09:54;96096.50;;;27.27;35.35
58367;BME280;57745;42.524;12.052;2023-08-07T11:12:20;96089.47;;;27.05;34.54
58367;BME280;57745;42.524;12.052;2023-08-07T11:14:46;96089.19;;;27.16;34.68
58367;BME280;57745;42.524;12.052;2023-08-07T11:17:12;96084.72;;;27.13;35.42
58367;BME280;57745;42.524;12.052;2023-08-07T11:19:38;96095.41;;;27.30;35.63
58367;BME280;57745;42.524;12.052;2023-08-07T11:22:03;96088.25;;;27.14;35.33
58367;BME280;57745;42.524;12.052;2023-08-07T11:24:29;96084.81;;;27.29;34.99
58367;BME280;57745;42.524;12.052;2023-08-07T11:26:56;96083.66;;;27.24;34.69
58367;BME280;57745;42.524;12.052;2023-08-07T11:29:22;96090.41;;;27.29;34.42
58367;BME280;57745;42.524;12.052;2023-08-07T11:31:50;96089.66;;;27.28;34.31
58367;BME280;57745;42.524;12.052;2023-08-07T11:34:19;96085.38;;;27.27;33.95
58367;BME280;57745;42.524;12.052;2023-08-07T11:36:45;96085.91;;;27.26;34.26
58367;BME280;57745;42.524;12.052;2023-08-07T11:39:12;96088.16;;;27.27;35.21
58367;BME280;57745;42.524;12.052;2023-08-07T11:41:38;96085.59;;;27.37;34.42
58367;BME280;57745;42.524;12.052;2023-08-07T11:44:04;96089.31;;;27.32;34.45
58367;BME280;57745;42.524;12.052;2023-08-07T11:46:29;96086.84;;;27.28;33.41
58367;BME280;57745;42.524;12.052;2023-08-07T11:48:56;96087.94;;;27.25;33.39
58367;BME280;57745;42.524;12.052;2023-08-07T11:51:22;96090.94;;;27.27;34.14
58367;BME280;57745;42.524;12.052;2023-08-07T11:53:48;96091.94;;;27.37;33.17
58367;BME280;57745;42.524;12.052;2023-08-07T11:56:13;96092.13;;;27.39;32.65
58367;BME280;57745;42.524;12.052;2023-08-07T11:58:47;96090.63;;;27.38;32.82
58367;BME280;57745;42.524;12.052;2023-08-07T12:01:36;96084.19;;;27.43;32.43
58367;BME280;57745;42.524;12.052;2023-08-07T12:06:30;96085.19;;;27.33;32.64
58367;BME280;57745;42.524;12.052;2023-08-07T12:08:56;96087.34;;;27.47;32.30
58367;BME280;57745;42.524;12.052;2023-08-07T12:11:22;96085.06;;;27.38;31.37
58367;BME280;57745;42.524;12.052;2023-08-07T12:13:49;96078.50;;;27.28;29.78
58367;BME280;57745;42.524;12.052;2023-08-07T12:16:15;96083.97;;;27.41;31.46
58367;BME280;57745;42.524;12.052;2023-08-07T12:18:45;96077.22;;;27.58;31.68
58367;BME280;57745;42.524;12.052;2023-08-07T12:21:14;96076.72;;;27.38;30.83
58367;BME280;57745;42.524;12.052;2023-08-07T12:23:39;96084.00;;;27.49;31.62
58367;BME280;57745;42.524;12.052;2023-08-07T12:26:06;96073.19;;;27.38;31.60
58367;BME280;57745;42.524;12.052;2023-08-07T12:28:34;96071.53;;;27.42;30.68
58367;BME280;57745;42.524;12.052;2023-08-07T12:30:59;96074.13;;;27.40;31.36
58367;BME280;57745;42.524;12.052;2023-08-07T12:33:25;96073.19;;;27.38;30.17
58367;BME280;57745;42.524;12.052;2023-08-07T12:35:51;96065.22;;;27.42;31.29
58367;BME280;57745;42.524;12.052;2023-08-07T12:38:16;96062.25;;;27.40;30.77
58367;BME280;57745;42.524;12.052;2023-08-07T12:40:42;96062.22;;;27.32;30.83
58367;BME280;57745;42.524;12.052;2023-08-07T12:43:08;96064.72;;;27.51;32.21
58367;BME280;57745;42.524;12.052;2023-08-07T12:45:34;96057.81;;;27.44;30.96
58367;BME280;57745;42.524;12.052;2023-08-07T12:48:00;96053.69;;;27.38;31.15
58367;BME280;57745;42.524;12.052;2023-08-07T12:50:29;96068.59;;;27.48;32.03
58367;BME280;57745;42.524;12.052;2023-08-07T12:52:54;96074.78;;;27.54;32.41
58367;BME280;57745;42.524;12.052;2023-08-07T12:55:20;96066.75;;;27.50;32.12
58367;BME280;57745;42.524;12.052;2023-08-07T12:57:46;96060.25;;;27.48;33.43